Key West, FL

01:03 EDT le 04 juillet 2015 (GMT -0400)
Big Coppitt Key Gulfside | | Change Station
CLOSE
Current Station
Stations météorologiques personnelles
Location: Key West, FL
Altitude: 31 ft
Stations météo à proximité

Alt. 31 ft 24.60 °N, 81.67 °W | Updated 5 minutes ago

Ciel dégagé
Ciel dégagé
83.3 ° F
Paraît 90 ° F
N
11.4
Vent Variable Vent de Est

Aujourd'hui
Haut(e) -- | Bas -- ° F
--% Risque de précip.
Hier
Haut(e) -- | Bas -- ° F
Precip. -- pouce
6:42 AM 8:19 PM
Lune gibbeuse décroissante, 94% visible
Pression 30.07 pouce
Visibilité 10.0 Miles terrestres
Nuages Ciel dégagé
indice de chaleur 90 ° F
Point de rosée 74 ° F
Humidité 75%
Précipitations 0.00 pouce
Profondeur de la couche neigeuse Non disponible.
UV 0 sur 12
Pollen 3.90 sur 12
Qualité de l'air Non disponible.
Flu Activity Non disponible.
METAR KNQX 040453Z AUTO 10012KT 10SM CLR 29/24 A3008 RMK AO2 SLP183 T02890239 403280278

More Conditions Fewer Conditions

Pression 30.07 pouce
Visibilité 10.0 Miles terrestres
Nuages Ciel dégagé
indice de chaleur 90 ° F
Point de rosée 74 ° F
Humidité 75%
Précipitations 0.00 pouce
Profondeur de la couche neigeuse Non disponible.
UV 0 sur 12
Pollen 3.90 sur 12
Qualité de l'air Non disponible.
Flu Activity Non disponible.
METAR KNQX 040453Z AUTO 10012KT 10SM CLR 29/24 A3008 RMK AO2 SLP183 T02890239 403280278

More Conditions Fewer Conditions

10-Day Weather Forecast

×

Almanac

Astronomie

Jul. 04, 2015 Lever Coucher
Temps réel
Crépuscule civil
Crépuscule nautique
Crépuscule astronomique
Lune
Durée de lumière visible
Longueur du jour
Tomorrow will be .
, % of the Moon is Illuminated

Extrêmes aujourd'hui

State Highs State Lows

Community

WunderPhotos

Upload Photos

1,834,921 Photos téléchargées !

WunderBlogs® & News

Nearby

Qualité de l'air

  Qualité de l'air Indice de la qualité de l'air Polluant
Not available.

Épaisseur de neige

Station Depth Altitude

Activité sismique

Ville Distance Mag. Time & Date
Minimum magnitude displayed is 2.5.

Températures des eaux côtières

Lieu Température

Stations

Stations météo à proximité

Emplacement de la station Température Refroidissement éolien Point de rosée Humidité Vent Precip. Alt. Mise à jour Type